Time;durP1;ratioP1;P1;durP2;ratioP2;P2;SDS_P1;SDS_P2;PMS_P1;PMS_P2;Temp;Humidity;BMP_temperature;BMP_pressure;BME280_temperature;BME280_humidity;BME280_pressure;Samples;Min_cycle;Max_cycle;Signal;HPM_P1;HPM_P2
2022/06/05 00:02:37;;;;;;;18.42;2.75;;;;;;;23.19;55.13;99868.78;7313795;19;129646;-42
2022/06/05 00:05:22;;;;;;;24.05;3.47;;;;;;;23.21;53.83;99862.44;7314422;19;129084;-40
2022/06/05 00:08:05;;;;;;;35.05;4.00;;;;;;;23.23;54.50;99864.91;7312703;19;128871;-41
2022/06/05 00:10:52;;;;;;;29.55;3.35;;;;;;;23.24;54.55;99861.31;7313689;19;130864;-42
2022/06/05 00:13:30;;;;;;;23.38;3.13;;;;;;;23.22;54.49;99858.03;7313889;19;129348;-42
2022/06/05 00:15:56;;;;;;;37.70;4.22;;;;;;;23.23;53.29;99859.69;7314720;19;130708;-41
2022/06/05 00:18:21;;;;;;;26.45;2.97;;;;;;;23.23;53.21;99864.91;7312870;19;128844;-40
2022/06/05 00:20:47;;;;;;;29.45;3.45;;;;;;;23.23;53.27;99864.91;7313163;19;129197;-43
2022/06/05 00:23:13;;;;;;;26.92;3.08;;;;;;;22.98;51.80;99855.06;7313940;19;130951;-41
2022/06/05 00:25:51;;;;;;;38.05;4.15;;;;;;;22.71;50.54;99849.75;7310740;19;128915;-42
2022/06/05 00:28:38;;;;;;;12.07;2.08;;;;;;;22.71;49.89;99863.66;7314089;19;129633;-43
2022/06/05 00:31:39;;;;;;;25.03;3.10;;;;;;;22.91;53.32;99869.69;7312890;19;131427;-43
2022/06/05 00:34:04;;;;;;;20.70;2.88;;;;;;;23.00;53.10;99874.94;7310191;19;129267;-42
2022/06/05 00:36:35;;;;;;;39.38;4.25;;;;;;;23.04;54.05;99872.84;7312763;19;128844;-41
2022/06/05 00:39:25;;;;;;;34.05;3.83;;;;;;;23.13;54.55;99867.59;7312118;19;128902;-41
2022/06/05 00:41:58;;;;;;;19.95;2.70;;;;;;;23.17;53.08;99865.50;7311592;19;130374;-42
2022/06/05 00:44:29;;;;;;;21.70;2.75;;;;;;;23.17;53.49;99871.56;7314745;19;130900;-41
2022/06/05 00:46:56;;;;;;;21.85;3.03;;;;;;;23.21;52.89;99879.97;7311256;19;129036;-38
2022/06/05 00:49:24;;;;;;;31.83;3.88;;;;;;;23.21;52.76;99893.09;7312823;19;128891;-41
2022/06/05 00:51:50;;;;;;;8.65;2.10;;;;;;;23.22;53.89;99885.06;7309976;19;129539;-42
2022/06/05 00:54:15;;;;;;;22.17;3.00;;;;;;;23.22;53.25;99892.13;7312903;19;130123;-40
2022/06/05 00:56:41;;;;;;;10.27;2.30;;;;;;;23.24;52.95;99895.41;7312195;19;129361;-42
2022/06/05 00:59:10;;;;;;;25.23;2.85;;;;;;;23.24;53.39;99892.78;7313106;19;129536;-40
2022/06/05 01:01:36;;;;;;;39.65;4.15;;;;;;;23.22;52.71;99884.28;7310197;19;129246;-41
2022/06/05 01:04:01;;;;;;;30.55;3.58;;;;;;;23.24;53.76;99887.56;7312330;19;129127;-42
2022/06/05 01:06:29;;;;;;;27.63;3.65;;;;;;;23.19;54.12;99879.28;7309967;19;128867;-41
2022/06/05 01:08:54;;;;;;;20.50;2.90;;;;;;;22.95;51.64;99876.31;7312198;19;128920;-39
2022/06/05 01:11:37;;;;;;;27.10;3.20;;;;;;;22.73;49.92;99863.53;7306421;19;130952;-42
2022/06/05 01:14:24;;;;;;;25.15;3.17;;;;;;;22.72;49.39;99864.50;7312684;19;129608;-40
2022/06/05 01:16:55;;;;;;;23.45;3.10;;;;;;;22.90;51.92;99861.03;7311903;19;129009;-41
2022/06/05 01:19:44;;;;;;;26.95;3.25;;;;;;;23.01;54.45;99865.25;7313423;19;129145;-42
2022/06/05 01:22:37;;;;;;;27.23;3.45;;;;;;;23.03;54.25;99842.34;7308369;19;130275;-42
2022/06/05 01:25:23;;;;;;;29.23;3.40;;;;;;;23.15;54.44;99856.94;7311969;19;131519;-40
2022/06/05 01:27:56;;;;;;;32.22;3.60;;;;;;;23.20;53.89;99857.34;7310917;19;128826;-40
2022/06/05 01:30:23;;;;;;;21.95;2.83;;;;;;;23.19;53.56;99853.06;7312748;19;129320;-42
2022/06/05 01:33:11;;;;;;;24.30;3.13;;;;;;;23.22;54.48;99860.66;7312481;19;130587;-40
2022/06/05 01:35:59;;;;;;;53.63;5.57;;;;;;;23.24;54.90;99856.06;7309308;19;130447;-42
2022/06/05 01:38:40;;;;;;;25.30;3.15;;;;;;;23.22;55.09;99853.59;7308271;19;129446;-41
2022/06/05 01:41:14;;;;;;;24.55;3.00;;;;;;;23.21;55.17;99859.81;7308808;19;129243;-42
2022/06/05 01:43:46;;;;;;;38.88;4.13;;;;;;;23.21;53.47;99851.94;7309229;19;129559;-41
2022/06/05 01:46:34;;;;;;;24.50;3.17;;;;;;;23.25;55.34;99852.50;7308355;19;130286;-42
2022/06/05 01:49:09;;;;;;;29.02;3.22;;;;;;;23.24;55.43;99851.66;7308836;19;129310;-40
2022/06/05 01:51:42;;;;;;;30.13;3.53;;;;;;;23.24;54.54;99849.03;7307789;19;129794;-41
2022/06/05 01:54:14;;;;;;;21.80;3.15;;;;;;;23.15;53.96;99846.47;7308035;19;130519;-41
2022/06/05 01:56:44;;;;;;;53.58;5.38;;;;;;;22.77;50.21;99849.19;7306668;19;129203;-41
2022/06/05 01:59:14;;;;;;;38.28;3.85;;;;;;;22.72;49.93;99841.75;7308350;19;129293;-40
2022/06/05 02:01:48;;;;;;;30.23;3.63;;;;;;;22.75;49.57;99843.25;7307192;19;129713;-42
2022/06/05 02:04:20;;;;;;;22.30;2.80;;;;;;;22.99;52.83;99841.81;7308620;19;132151;-40
2022/06/05 02:07:24;;;;;;;27.48;3.15;;;;;;;23.05;53.70;99835.16;7306058;19;131190;-40
2022/06/05 02:09:58;;;;;;;24.02;3.08;;;;;;;23.12;52.89;99836.25;7307597;19;128928;-41
2022/06/05 02:12:24;;;;;;;21.80;2.70;;;;;;;23.15;52.76;99831.53;7308061;19;129755;-40
2022/06/05 02:14:50;;;;;;;16.43;2.80;;;;;;;23.18;53.42;99827.81;7309316;19;130164;-42
2022/06/05 02:17:16;;;;;;;20.90;2.72;;;;;;;23.20;52.80;99836.38;7307598;19;129158;-42
2022/06/05 02:19:42;;;;;;;19.20;3.10;;;;;;;23.20;53.09;99838.97;7310591;19;129079;-42
2022/06/05 02:22:30;;;;;;;26.38;3.22;;;;;;;23.23;54.83;99833.44;7314145;19;129244;-42
2022/06/05 02:24:56;;;;;;;27.23;3.60;;;;;;;23.22;54.02;99847.53;7315265;19;129635;-42
2022/06/05 02:27:24;;;;;;;26.70;3.47;;;;;;;23.24;54.12;99845.56;7311948;19;129243;-38
2022/06/05 02:29:50;;;;;;;22.50;2.85;;;;;;;23.22;53.21;99837.06;7314017;19;128962;-42
2022/06/05 02:32:48;;;;;;;;;;;;;;;23.28;55.12;99844.38;7316594;19;129430;-42
2022/06/05 02:35:49;;;;;;;20.73;2.75;;;;;;;23.26;55.25;99835.78;7161789;19;2899977;-41
2022/06/05 02:38:27;;;;;;;23.63;2.65;;;;;;;23.25;55.05;99831.50;7316713;19;129823;-42
2022/06/05 02:40:59;;;;;;;;;;;;;;;22.77;50.07;99830.84;7317597;19;130309;-42
2022/06/05 02:43:27;;;;;;;21.65;2.88;;;;;;;22.69;50.20;99833.34;7316488;19;129506;-41
2022/06/05 02:46:09;;;;;;;42.15;4.45;;;;;;;22.71;49.86;99837.47;7316048;19;130220;-42
2022/06/05 02:48:42;;;;;;;32.97;3.47;;;;;;;22.94;52.89;99837.97;7316812;19;129697;-42
2022/06/05 02:51:16;;;;;;;22.08;2.90;;;;;;;23.01;54.11;99833.78;7315805;19;129375;-40
2022/06/05 02:53:57;;;;;;;28.77;3.53;;;;;;;23.08;54.49;99838.34;7317215;19;128828;-40
2022/06/05 02:56:26;;;;;;;28.23;3.30;;;;;;;23.13;52.91;99833.50;7317028;19;129578;-41
2022/06/05 02:58:53;;;;;;;23.58;2.85;;;;;;;23.15;52.45;99841.22;7316131;19;130327;-39
2022/06/05 03:04:03;;;;;;;23.83;2.92;;;;;;;23.20;53.51;99838.97;7313680;19;129165;-41
2022/06/05 03:06:30;;;;;;;33.35;3.72;;;;;;;23.22;52.52;99831.81;7314276;19;129987;-42
2022/06/05 03:08:56;;;;;;;22.85;2.95;;;;;;;23.15;53.26;99814.97;7314696;19;131056;-41
2022/06/05 03:11:21;;;;;;;22.27;3.03;;;;;;;23.23;53.24;99831.66;7315330;19;128868;-42
2022/06/05 03:13:47;;;;;;;22.57;3.07;;;;;;;23.23;53.67;99833.44;7316618;19;128912;-41
2022/06/05 03:16:12;;;;;;;23.75;3.05;;;;;;;23.22;53.53;99834.44;7314368;19;131156;-41
2022/06/05 03:18:38;;;;;;;34.90;3.73;;;;;;;23.24;53.63;99835.09;7315739;19;130326;-41
2022/06/05 03:21:03;;;;;;;79.85;7.22;;;;;;;23.22;53.23;99837.06;7312072;19;129069;-42
2022/06/05 03:23:31;;;;;;;44.00;4.47;;;;;;;23.24;53.34;99846.41;7314498;19;129235;-41
2022/06/05 03:25:57;;;;;;;33.85;3.58;;;;;;;22.77;50.56;99849.19;7313264;19;130880;-41
2022/06/05 03:28:22;;;;;;;23.50;3.05;;;;;;;22.71;49.88;99847.13;7315164;19;129818;-42
2022/06/05 03:30:47;;;;;;;21.33;3.17;;;;;;;22.72;49.61;99836.50;7313641;19;129368;-42
2022/06/05 03:33:13;;;;;;;10.32;2.20;;;;;;;22.87;52.52;99816.72;7315248;19;128954;-40
2022/06/05 03:35:41;;;;;;;33.05;3.83;;;;;;;23.03;52.91;99832.69;7315404;19;130128;-42
2022/06/05 03:38:07;;;;;;;32.50;3.63;;;;;;;23.09;52.71;99841.75;7314707;19;130460;-42
2022/06/05 03:40:33;;;;;;;28.35;3.35;;;;;;;23.15;52.68;99841.22;7314997;19;129002;-42
2022/06/05 03:42:59;;;;;;;30.83;3.72;;;;;;;23.16;53.30;99843.69;7316514;19;129097;-42
2022/06/05 03:45:25;;;;;;;30.05;3.53;;;;;;;23.21;53.00;99845.88;7316039;19;130199;-41
2022/06/05 03:47:50;;;;;;;25.15;3.22;;;;;;;23.21;53.23;99851.94;7314335;19;129608;-42
2022/06/05 03:50:17;;;;;;;23.10;2.95;;;;;;;23.22;53.57;99853.59;7315088;19;128909;-41
2022/06/05 03:52:43;;;;;;;28.25;3.55;;;;;;;23.23;53.14;99855.25;7316083;19;129136;-42
2022/06/05 03:55:10;;;;;;;19.33;2.63;;;;;;;23.23;53.24;99857.06;7314852;19;128985;-42
2022/06/05 03:57:36;;;;;;;40.63;4.05;;;;;;;23.14;52.81;99844.78;7313201;19;130391;-42
2022/06/05 04:00:04;;;;;;;34.88;3.70;;;;;;;23.15;53.11;99851.69;7314246;19;128954;-41
2022/06/05 04:02:31;;;;;;;24.13;3.17;;;;;;;23.15;52.90;99851.69;7311885;19;129386;-42
2022/06/05 04:04:58;;;;;;;19.10;2.90;;;;;;;23.23;53.45;99859.69;7314785;19;130312;-42
2022/06/05 04:07:23;;;;;;;36.08;4.35;;;;;;;23.25;53.67;99852.50;7311169;19;129766;-42
2022/06/05 04:09:49;;;;;;;25.73;3.47;;;;;;;22.89;50.85;99850.69;7313489;19;129815;-41
2022/06/05 04:12:14;;;;;;;28.97;3.33;;;;;;;22.73;50.19;99839.94;7313432;19;128936;-42
2022/06/05 04:14:40;;;;;;;25.23;2.95;;;;;;;22.72;50.02;99844.38;7315591;19;130085;-42
2022/06/05 04:17:05;;;;;;;37.95;3.60;;;;;;;22.77;51.55;99817.72;7314054;19;130639;-42
2022/06/05 04:19:31;;;;;;;38.35;4.25;;;;;;;22.99;52.93;99836.56;7313280;19;128707;-41
2022/06/05 04:21:56;;;;;;;29.85;3.38;;;;;;;23.04;53.11;99823.84;7312662;19;129160;-42
2022/06/05 04:24:22;;;;;;;23.63;3.00;;;;;;;23.12;52.50;99816.06;7314269;19;129132;-42
2022/06/05 04:26:48;;;;;;;22.77;3.20;;;;;;;23.17;52.51;99813.03;7312038;19;130295;-42
2022/06/05 04:29:13;;;;;;;37.00;3.97;;;;;;;23.16;53.05;99799.09;7313854;19;129255;-42
2022/06/05 04:31:46;;;;;;;29.10;3.55;;;;;;;23.22;53.96;99808.19;7312839;19;130180;-40
2022/06/05 04:34:15;;;;;;;28.58;3.50;;;;;;;23.22;53.90;99795.06;7314829;19;130585;-42
2022/06/05 04:36:41;;;;;;;24.48;3.25;;;;;;;23.22;52.80;99788.00;7313293;19;131133;-42
2022/06/05 04:39:07;;;;;;;22.60;2.73;;;;;;;23.23;53.21;99791.47;7313706;19;129654;-43
2022/06/05 04:41:32;;;;;;;32.42;4.32;;;;;;;23.22;52.95;99780.16;7309998;19;129009;-41
2022/06/05 04:43:58;;;;;;;36.50;3.80;;;;;;;23.23;52.54;99770.50;7314092;19;129430;-41
2022/06/05 04:46:26;;;;;;;22.00;2.90;;;;;;;23.15;53.83;99768.56;7311559;19;130982;-41
2022/06/05 04:48:52;;;;;;;24.02;2.90;;;;;;;23.17;53.51;99758.78;7311846;19;128866;-42
2022/06/05 04:51:18;;;;;;;19.70;2.90;;;;;;;23.17;54.01;99755.34;7312087;19;128927;-41
2022/06/05 04:53:44;;;;;;;21.02;3.05;;;;;;;23.23;53.39;99766.06;7314393;19;130636;-41
2022/06/05 04:56:13;;;;;;;27.30;3.30;;;;;;;22.83;50.73;99772.59;7312537;19;129061;-41
2022/06/05 04:58:39;;;;;;;29.00;3.25;;;;;;;22.74;50.06;99770.84;7313806;19;129131;-41
2022/06/05 05:01:32;;;;;;;25.43;2.90;;;;;;;22.73;49.70;99769.16;7310603;19;129202;-42
2022/06/05 05:04:08;;;;;;;22.90;2.90;;;;;;;22.98;51.72;99768.53;7312090;19;130620;-40
2022/06/05 05:06:34;;;;;;;28.42;3.70;;;;;;;23.02;52.50;99767.28;7310790;19;131418;-41
2022/06/05 05:09:00;;;;;;;31.15;3.45;;;;;;;23.10;52.59;99759.50;7312432;19;129004;-41
2022/06/05 05:11:26;;;;;;;22.70;3.07;;;;;;;23.14;52.77;99756.44;7311260;19;129055;-42
2022/06/05 05:13:56;;;;;;;32.13;3.60;;;;;;;23.13;54.12;99733.00;7312324;19;129028;-41
2022/06/05 05:16:22;;;;;;;41.03;4.10;;;;;;;23.21;52.40;99747.03;7310516;19;129238;-42
2022/06/05 05:18:48;;;;;;;21.90;3.05;;;;;;;23.20;53.76;99752.44;7312761;19;129472;-42
2022/06/05 05:21:17;;;;;;;19.08;2.80;;;;;;;23.22;53.54;99750.50;7310521;19;129752;-42
2022/06/05 05:23:43;;;;;;;32.72;3.72;;;;;;;23.22;53.22;99740.78;7313013;19;129669;-43
2022/06/05 05:26:15;;;;;;;25.92;3.30;;;;;;;23.22;54.54;99747.88;7310451;19;131621;-42
2022/06/05 05:28:41;;;;;;;34.90;3.75;;;;;;;23.22;52.76;99747.88;7311508;19;129535;-41
2022/06/05 05:31:10;;;;;;;24.75;3.15;;;;;;;23.23;54.17;99746.88;7310682;19;129019;-41
2022/06/05 05:33:35;;;;;;;30.17;3.65;;;;;;;23.23;54.01;99749.50;7312041;19;130241;-42
2022/06/05 05:36:01;;;;;;;26.75;3.35;;;;;;;23.23;53.85;99744.25;7311627;19;130346;-40
2022/06/05 05:38:26;;;;;;;18.98;2.65;;;;;;;23.22;53.57;99758.34;7311402;19;129371;-42
2022/06/05 05:43:35;;;;;;;24.20;3.08;;;;;;;22.74;50.41;99757.72;7311095;19;128927;-42
2022/06/05 05:46:01;;;;;;;27.48;3.25;;;;;;;22.74;49.73;99762.97;7310665;19;131021;-43
2022/06/05 05:48:26;;;;;;;21.52;2.85;;;;;;;22.90;50.67;99764.00;7310619;19;129776;-42
2022/06/05 05:50:52;;;;;;;24.65;2.90;;;;;;;22.99;52.65;99759.72;7310274;19;129514;-41
2022/06/05 05:53:17;;;;;;;25.10;3.10;;;;;;;23.05;52.54;99762.56;7312020;19;130271;-42
2022/06/05 05:55:42;;;;;;;62.03;6.15;;;;;;;23.13;52.94;99764.47;7316234;19;129020;-42
2022/06/05 05:58:08;;;;;;;35.85;3.65;;;;;;;23.11;52.76;99758.53;7316052;19;128993;-42
2022/06/05 06:00:34;;;;;;;27.45;3.20;;;;;;;23.18;53.77;99756.97;7317202;19;129460;-43
2022/06/05 06:02:59;;;;;;;24.87;3.17;;;;;;;23.21;52.38;99761.94;7318050;19;130071;-42
2022/06/05 06:05:25;;;;;;;21.48;2.92;;;;;;;23.24;52.39;99766.88;7317534;19;129776;-38
2022/06/05 06:07:51;;;;;;;32.03;3.53;;;;;;;23.23;52.86;99766.06;7314536;19;128947;-42
2022/06/05 06:10:16;;;;;;;28.10;3.87;;;;;;;23.21;53.02;99775.03;7316323;19;129037;-41
2022/06/05 06:12:41;;;;;;;20.83;2.83;;;;;;;23.24;53.36;99772.13;7317919;19;130217;-42
2022/06/05 06:15:08;;;;;;;25.90;3.00;;;;;;;23.16;53.05;99751.06;7317713;19;130801;-41
2022/06/05 06:17:34;;;;;;;22.38;3.00;;;;;;;23.25;53.39;99763.31;7315647;19;129665;-42
2022/06/05 06:19:59;;;;;;;28.67;3.67;;;;;;;23.23;53.42;99776.56;7318363;19;129214;-41
2022/06/05 06:22:24;;;;;;;13.95;2.35;;;;;;;23.25;53.03;99768.56;7317525;19;129561;-39
2022/06/05 06:24:50;;;;;;;25.80;3.40;;;;;;;23.24;53.40;99761.63;7316708;19;129739;-43
2022/06/05 06:27:15;;;;;;;41.67;4.50;;;;;;;22.72;50.20;99751.78;7314957;19;129150;-42
2022/06/05 06:29:41;;;;;;;28.17;3.28;;;;;;;22.72;49.68;99754.41;7315908;19;128929;-41
2022/06/05 06:32:06;;;;;;;26.13;3.13;;;;;;;;;;7315096;19;129994;-41
2022/06/05 06:34:32;;;;;;;50.67;4.88;;;;;;;22.99;52.13;99755.28;7316414;19;129592;-41
2022/06/05 06:36:57;;;;;;;10.18;2.22;;;;;;;22.96;52.65;99739.00;7316220;19;128984;-41
2022/06/05 06:39:23;;;;;;;33.13;3.80;;;;;;;23.09;53.28;99749.97;7316262;19;129095;-41
2022/06/05 06:41:49;;;;;;;12.20;2.27;;;;;;;23.12;52.29;99747.88;7315131;19;130458;-43
2022/06/05 06:44:15;;;;;;;22.45;2.92;;;;;;;23.17;52.83;99750.09;7315888;19;130202;-42
2022/06/05 06:46:41;;;;;;;27.85;3.33;;;;;;;23.19;52.92;99742.88;7314558;19;129156;-42
2022/06/05 06:49:07;;;;;;;23.02;2.92;;;;;;;23.20;52.87;99740.13;7316464;19;129622;-43
2022/06/05 06:51:33;;;;;;;40.97;4.45;;;;;;;23.14;52.53;99724.13;7314110;19;129978;-42
2022/06/05 06:53:58;;;;;;;31.80;3.40;;;;;;;23.24;53.63;99740.66;7316919;19;130730;-41
2022/06/05 06:56:26;;;;;;;28.17;3.17;;;;;;;23.21;53.33;99738.31;7316551;19;129208;-41
2022/06/05 06:58:52;;;;;;;21.23;2.75;;;;;;;23.24;53.47;99730.16;7315130;19;129415;-41
2022/06/05 07:01:18;;;;;;;22.27;2.90;;;;;;;23.23;53.43;99728.53;7314015;19;130033;-41
2022/06/05 07:03:43;;;;;;;26.73;2.78;;;;;;;23.24;52.75;99727.53;7315730;19;130258;-41
2022/06/05 07:06:12;;;;;;;23.60;3.17;;;;;;;23.21;53.81;99719.97;7315018;19;129038;-41
2022/06/05 07:08:37;;;;;;;40.85;4.28;;;;;;;23.22;53.74;99719.00;7314928;19;129683;-42
2022/06/05 07:11:08;;;;;;;27.23;3.25;;;;;;;22.95;51.20;99708.53;7313973;19;130088;-41
2022/06/05 07:13:34;;;;;;;35.85;4.13;;;;;;;22.75;50.46;99709.56;7316439;19;129686;-43
2022/06/05 07:16:00;;;;;;;25.65;3.05;;;;;;;22.74;50.13;99711.34;7313263;19;129066;-42
2022/06/05 07:18:25;;;;;;;24.17;2.80;;;;;;;22.88;50.48;99710.91;7314691;19;129366;-42
2022/06/05 07:20:51;;;;;;;21.58;2.72;;;;;;;22.98;52.27;99697.72;7313530;19;129023;-43
2022/06/05 07:23:16;;;;;;;27.80;3.10;;;;;;;22.97;52.84;99682.97;7315912;19;129560;-42
2022/06/05 07:25:50;;;;;;;38.72;4.25;;;;;;;23.13;53.79;99698.91;7314433;19;128668;-42
2022/06/05 07:28:16;;;;;;;26.10;2.80;;;;;;;23.16;52.54;99695.97;7312501;19;130184;-43
2022/06/05 07:30:46;;;;;;;22.30;2.80;;;;;;;23.19;54.39;99695.66;7314334;19;128962;-41
2022/06/05 07:33:11;;;;;;;56.97;4.80;;;;;;;23.22;52.91;99685.72;7313763;19;131063;-41
2022/06/05 07:35:36;;;;;;;46.05;4.95;;;;;;;23.14;52.62;99669.06;7313776;19;129200;-41
2022/06/05 07:38:02;;;;;;;26.23;3.20;;;;;;;23.23;53.35;99681.31;7314222;19;129313;-42
2022/06/05 07:40:27;;;;;;;16.98;2.28;;;;;;;23.23;53.14;99686.56;7314195;19;129094;-42
2022/06/05 07:42:52;;;;;;;22.73;3.17;;;;;;;23.18;53.35;99688.78;7314220;19;130254;-43
2022/06/05 07:45:18;;;;;;;23.77;2.95;;;;;;;23.21;53.12;99678.81;7314798;19;129374;-41
2022/06/05 07:47:44;;;;;;;18.17;2.70;;;;;;;23.23;53.40;99676.06;7311377;19;129504;-43
2022/06/05 07:50:11;;;;;;;31.77;3.63;;;;;;;23.22;53.94;99669.16;7313940;19;130239;-41
2022/06/05 07:55:21;;;;;;;25.38;2.70;;;;;;;23.23;52.94;99678.69;7314550;19;128972;-42
2022/06/05 07:57:47;;;;;;;26.80;2.85;;;;;;;22.77;50.96;99668.31;7313216;19;129973;-41
2022/06/05 08:00:13;;;;;;;6.23;1.87;;;;;;;22.73;50.09;99670.41;7314526;19;130054;-42
2022/06/05 08:02:39;;;;;;;27.80;3.40;;;;;;;22.72;49.52;99667.94;7315016;19;130562;-41
2022/06/05 08:05:05;;;;;;;32.10;3.60;;;;;;;22.93;52.32;99668.50;7314214;19;130537;-41
2022/06/05 08:07:32;;;;;;;33.63;3.57;;;;;;;23.00;52.20;99672.19;7311030;19;129118;-42
2022/06/05 08:09:58;;;;;;;30.77;3.42;;;;;;;23.08;52.13;99667.88;7313622;19;130072;-42
2022/06/05 08:12:29;;;;;;;21.42;2.65;;;;;;;23.14;53.08;99655.94;7313751;19;129482;-39
2022/06/05 08:14:54;;;;;;;23.15;2.70;;;;;;;23.15;53.00;99662.84;7314130;19;129705;-39
2022/06/05 08:17:24;;;;;;;28.92;3.30;;;;;;;23.20;54.20;99665.88;7310845;19;128859;-42
2022/06/05 08:19:50;;;;;;;19.63;2.42;;;;;;;23.19;53.01;99654.53;7315398;19;132070;-42
2022/06/05 08:22:17;;;;;;;44.83;4.45;;;;;;;23.11;53.70;99646.59;7313411;19;131082;-43
2022/06/05 08:24:43;;;;;;;20.05;2.83;;;;;;;23.19;53.22;99662.41;7314032;19;129199;-41
2022/06/05 08:27:14;;;;;;;47.25;4.60;;;;;;;23.21;54.31;99652.59;7310814;19;129212;-42
2022/06/05 08:29:41;;;;;;;32.50;3.80;;;;;;;23.21;53.05;99657.00;7312882;19;131460;-43
2022/06/05 08:32:07;;;;;;;30.38;3.35;;;;;;;23.23;53.60;99650.66;7311342;19;129265;-41
2022/06/05 08:34:33;;;;;;;32.58;3.53;;;;;;;23.21;54.41;99651.75;7312817;19;129169;-41
2022/06/05 08:42:30;;;;;;;28.30;3.20;;;;;;;22.84;50.84;99630.88;7313191;19;129360;-40
2022/06/05 08:45:02;;;;;;;28.02;3.20;;;;;;;22.73;50.43;99625.00;7312990;19;129115;-41
2022/06/05 08:47:47;;;;;;;23.90;2.72;;;;;;;22.75;49.23;99641.41;7311151;19;129028;-41
2022/06/05 08:50:43;;;;;;;29.98;3.30;;;;;;;22.96;53.55;99639.34;7312632;19;130090;-43
2022/06/05 08:53:17;;;;;;;20.75;2.72;;;;;;;23.04;52.89;99628.94;7314029;19;130536;-42
2022/06/05 08:55:47;;;;;;;53.80;5.50;;;;;;;23.08;53.64;99625.06;7312464;19;128989;-42
2022/06/05 08:58:47;;;;;;;26.02;2.97;;;;;;;23.06;54.32;99606.88;7311920;19;129021;-41
2022/06/05 09:01:37;;;;;;;30.23;3.33;;;;;;;23.19;54.13;99628.31;7310872;19;129058;-42
2022/06/05 09:04:27;;;;;;;21.38;2.85;;;;;;;23.19;54.63;99624.84;7312061;19;130461;-42
2022/06/05 09:07:02;;;;;;;20.77;2.53;;;;;;;23.20;54.26;99631.78;7309087;19;129807;-43
2022/06/05 09:09:40;;;;;;;29.65;3.45;;;;;;;23.21;53.66;99628.16;7311600;19;129922;-41
2022/06/05 09:12:28;;;;;;;17.73;2.60;;;;;;;23.13;52.74;99620.22;7309548;19;129257;-42
2022/06/05 09:15:01;;;;;;;21.83;2.60;;;;;;;23.21;54.14;99625.53;7312937;19;131236;-43
2022/06/05 09:17:27;;;;;;;7.25;1.83;;;;;;;23.23;52.54;99615.72;7310644;19;128789;-41
2022/06/05 09:19:56;;;;;;;26.70;3.37;;;;;;;23.21;54.13;99621.13;7310854;19;129320;-42
2022/06/05 09:22:40;;;;;;;28.23;3.22;;;;;;;23.17;53.95;99605.84;7311904;19;131369;-42
2022/06/05 09:25:13;;;;;;;21.33;2.70;;;;;;;23.22;54.62;99616.72;7311709;19;130550;-42
2022/06/05 09:27:41;;;;;;;29.08;3.25;;;;;;;22.79;50.75;99619.19;7309708;19;129166;-41
2022/06/05 09:30:16;;;;;;;19.73;2.65;;;;;;;22.71;49.93;99619.91;7311134;19;130426;-41
2022/06/05 09:33:08;;;;;;;27.23;2.88;;;;;;;22.75;50.06;99623.06;7312057;19;130201;-41
2022/06/05 09:35:39;;;;;;;42.60;4.05;;;;;;;22.95;52.98;99617.59;7309742;19;130533;-42
2022/06/05 09:38:35;;;;;;;23.50;2.83;;;;;;;23.04;54.45;99618.47;7310409;19;129057;-41
2022/06/05 09:41:22;;;;;;;22.83;2.70;;;;;;;23.11;53.34;99614.28;7310611;19;128864;-40
2022/06/05 09:44:25;;;;;;;25.23;2.93;;;;;;;23.10;53.66;99605.63;7310661;19;130181;-41
2022/06/05 09:46:58;;;;;;;39.47;4.15;;;;;;;23.18;54.18;99616.19;7308392;19;130361;-40
2022/06/05 09:49:45;;;;;;;20.23;2.70;;;;;;;23.19;55.19;99601.25;7311359;19;129214;-41
2022/06/05 09:52:14;;;;;;;28.17;3.23;;;;;;;23.20;53.14;99597.66;7309357;19;129203;-39
2022/06/05 09:54:48;;;;;;;28.88;3.13;;;;;;;23.21;52.85;99608.00;7310676;19;130172;-40
2022/06/05 10:00:49;;;;;;;23.00;3.00;;;;;;;23.20;55.05;99595.03;7310690;19;128838;-41
2022/06/05 10:03:38;;;;;;;19.90;2.40;;;;;;;23.18;55.33;99602.22;7310560;19;131056;-39
2022/06/05 10:06:27;;;;;;;13.93;2.33;;;;;;;23.20;55.51;99593.22;7310573;19;129292;-41
2022/06/05 10:09:19;;;;;;;25.02;2.75;;;;;;;23.25;55.40;99590.19;7311173;19;130258;-41
2022/06/05 10:12:03;;;;;;;32.65;3.55;;;;;;;22.82;51.25;99582.19;7308543;19;128969;-40
2022/06/05 10:14:38;;;;;;;24.65;2.72;;;;;;;22.65;50.23;99580.38;7310183;19;129087;-40
2022/06/05 10:17:16;;;;;;;26.92;3.00;;;;;;;22.73;50.07;99573.44;7309541;19;129481;-39
2022/06/05 10:20:00;;;;;;;;;;;;;;;23.01;53.15;99587.31;7309307;19;130550;-40
2022/06/05 10:22:34;;;;;;;24.58;2.83;;;;;;;23.02;53.96;99588.97;7310476;19;128932;-40
2022/06/05 10:25:37;;;;;;;34.35;3.45;;;;;;;23.08;54.64;99586.56;7310486;19;129830;-39
2022/06/05 10:28:18;;;;;;;29.95;3.17;;;;;;;23.13;53.76;99576.47;7306761;19;129202;-40
2022/06/05 10:31:05;;;;;;;32.88;3.63;;;;;;;23.17;54.81;99571.75;7308615;19;130415;-40
2022/06/05 10:33:31;;;;;;;28.52;3.28;;;;;;;23.19;52.89;99564.53;7310229;19;129036;-40
2022/06/05 10:36:19;;;;;;;24.40;3.00;;;;;;;23.20;53.35;99560.94;7308215;19;128974;-39
2022/06/05 10:39:23;;;;;;;20.95;2.40;;;;;;;23.23;54.38;99548.34;7309222;19;129056;-39
2022/06/05 10:41:51;;;;;;;24.17;2.63;;;;;;;23.22;52.88;99545.88;7314573;19;130413;-39
2022/06/05 10:44:24;;;;;;;40.63;3.88;;;;;;;23.20;53.99;99539.97;7316259;19;129222;-39
2022/06/05 10:47:17;;;;;;;34.00;3.75;;;;;;;23.21;54.64;99536.34;7315718;19;128975;-42
2022/06/05 10:49:48;;;;;;;33.38;3.53;;;;;;;23.21;53.56;99544.22;7316571;19;130248;-40
2022/06/05 10:52:30;;;;;;;25.98;3.08;;;;;;;23.19;54.81;99549.63;7315005;19;130271;-40
2022/06/05 10:55:39;;;;;;;18.48;2.38;;;;;;;23.11;52.82;99551.34;7317082;19;129517;-39
2022/06/05 10:58:26;;;;;;;24.40;2.85;;;;;;;22.70;50.65;99546.69;7311866;19;129097;-41
2022/06/05 11:01:03;;;;;;;20.08;2.65;;;;;;;22.62;49.85;99528.25;7315489;19;129425;-41
2022/06/05 11:03:47;;;;;;;27.15;2.83;;;;;;;22.86;53.31;99539.81;7315997;19;129526;-40
2022/06/05 11:07:02;;;;;;;37.58;3.70;;;;;;;22.98;54.19;99525.50;7315411;19;129475;-41
2022/06/05 11:09:48;;;;;;;27.90;2.95;;;;;;;23.06;54.27;99525.59;7314940;19;128962;-40
2022/06/05 11:16:13;;;;;;;40.20;4.00;;;;;;;23.12;54.76;99495.31;7314047;19;129438;-39
2022/06/05 11:18:46;;;;;;;36.60;3.67;;;;;;;23.19;54.81;99519.94;7313005;19;129160;-41
2022/06/05 11:21:17;;;;;;;23.40;2.67;;;;;;;23.18;53.61;99505.19;7314236;19;129143;-40
2022/06/05 11:23:47;;;;;;;32.60;3.50;;;;;;;23.18;53.12;99489.44;7315297;19;130992;-40
2022/06/05 11:26:40;;;;;;;26.30;3.15;;;;;;;23.17;54.82;99490.44;7315019;19;129501;-40
2022/06/05 11:29:27;;;;;;;34.45;3.35;;;;;;;23.18;53.77;99484.22;7313915;19;128794;-40
2022/06/05 11:31:56;;;;;;;21.60;2.63;;;;;;;23.16;54.66;99470.41;7313229;19;129128;-41
2022/06/05 11:34:31;;;;;;;21.92;2.53;;;;;;;23.22;53.59;99472.44;7315041;19;129066;-40
2022/06/05 11:37:21;;;;;;;21.25;2.58;;;;;;;23.22;54.90;99464.56;7313432;19;130392;-41
2022/06/05 11:40:14;;;;;;;22.38;3.05;;;;;;;23.00;52.05;99449.31;7314693;19;129301;-39
2022/06/05 11:43:04;;;;;;;35.80;3.60;;;;;;;22.70;50.40;99445.31;7314325;19;128996;-40
2022/06/05 11:45:44;;;;;;;30.33;3.55;;;;;;;22.66;49.83;99432.66;7314429;19;128979;-40
2022/06/05 11:48:27;;;;;;;13.00;2.13;;;;;;;22.92;53.18;99441.41;7312292;19;130469;-40
2022/06/05 11:51:27;;;;;;;23.80;2.55;;;;;;;22.99;54.08;99442.44;7312289;19;129998;-40
2022/06/05 11:54:16;;;;;;;20.85;2.58;;;;;;;23.09;54.34;99440.53;7314992;19;129277;-40
2022/06/05 11:57:21;;;;;;;50.17;4.68;;;;;;;23.13;54.37;99439.25;7312646;19;129430;-41
2022/06/05 12:00:21;;;;;;;26.27;2.80;;;;;;;23.15;55.12;99442.56;7314840;19;129247;-40
2022/06/05 12:03:15;;;;;;;28.73;3.00;;;;;;;23.19;54.99;99434.22;7313760;19;129047;-39
2022/06/05 12:05:44;;;;;;;52.00;5.07;;;;;;;23.16;54.54;99438.94;7312445;19;129122;-41
2022/06/05 12:08:11;;;;;;;24.65;2.83;;;;;;;23.14;54.06;99433.84;7312836;19;129725;-40